Time;durP1;ratioP1;P1;durP2;ratioP2;P2;SDS_P1;SDS_P2;PMS_P1;PMS_P2;Temp;Humidity;BMP_temperature;BMP_pressure;BME280_temperature;BME280_humidity;BME280_pressure;Samples;Min_cycle;Max_cycle;Signal;HPM_P1;HPM_P2
2023/08/03 00:01:27;;;;;;;5.68;1.55;;;19.30;99.80;;;;;;5057436;28;20040;-81
2023/08/03 00:03:53;;;;;;;12.48;2.25;;;19.30;99.80;;;;;;5053880;28;20021;-79
2023/08/03 00:06:19;;;;;;;7.78;1.50;;;19.20;99.80;;;;;;5058399;28;20013;-80
2023/08/03 00:08:44;;;;;;;8.55;1.45;;;19.20;99.70;;;;;;5068104;28;20029;-80
2023/08/03 00:11:10;;;;;;;8.75;1.60;;;19.20;99.70;;;;;;5069889;28;20489;-80
2023/08/03 00:13:35;;;;;;;5.55;1.70;;;19.20;99.70;;;;;;5067194;28;20032;-80
2023/08/03 00:16:01;;;;;;;7.32;1.67;;;19.20;99.70;;;;;;5057550;28;20086;-80
2023/08/03 00:18:27;;;;;;;6.53;1.80;;;19.20;99.60;;;;;;5058908;28;20036;-80
2023/08/03 00:20:52;;;;;;;4.50;1.40;;;19.30;99.60;;;;;;5057735;28;20021;-80
2023/08/03 00:23:18;;;;;;;5.53;1.38;;;19.30;99.60;;;;;;5069268;28;20017;-81
2023/08/03 00:25:43;;;;;;;5.03;1.52;;;19.20;99.60;;;;;;5070591;28;20485;-81
2023/08/03 00:28:09;;;;;;;5.88;1.60;;;19.20;99.60;;;;;;5062343;28;20106;-79
2023/08/03 00:30:34;;;;;;;7.13;1.52;;;19.20;99.50;;;;;;5063691;28;20021;-79
2023/08/03 00:33:00;;;;;;;8.60;1.98;;;19.20;99.40;;;;;;5057466;28;20029;-80
2023/08/03 00:35:26;;;;;;;4.72;1.60;;;19.20;99.40;;;;;;5059056;28;20485;-80
2023/08/03 00:37:53;;;;;;;9.68;1.45;;;19.20;99.40;;;;;;5068772;28;20015;-80
2023/08/03 00:40:19;;;;;;;7.10;1.85;;;19.20;99.40;;;;;;5068576;28;20505;-80
2023/08/03 00:42:45;;;;;;;7.82;1.33;;;19.20;99.30;;;;;;5069130;28;20043;-79
2023/08/03 00:45:13;;;;;;;15.20;2.42;;;19.20;99.30;;;;;;5061062;28;20466;-80
2023/08/03 00:47:39;;;;;;;11.70;1.75;;;19.20;99.30;;;;;;5062190;28;20104;-80
2023/08/03 00:50:06;;;;;;;6.13;1.50;;;19.20;99.30;;;;;;5064400;28;20167;-80
2023/08/03 00:52:35;;;;;;;7.22;1.45;;;19.20;99.30;;;;;;5068291;28;20032;-80
2023/08/03 00:55:01;;;;;;;7.15;2.33;;;19.20;99.30;;;;;;5065166;28;20054;-79
2023/08/03 00:57:30;;;;;;;11.05;1.90;;;19.20;99.20;;;;;;5067134;28;20085;-79
2023/08/03 00:59:56;;;;;;;9.25;1.50;;;19.20;99.20;;;;;;5066438;28;20052;-79
2023/08/03 01:02:21;;;;;;;9.13;2.15;;;19.20;99.20;;;;;;5060620;28;20052;-79
2023/08/03 01:04:48;;;;;;;4.45;1.70;;;19.20;99.10;;;;;;5064700;28;20115;-80
2023/08/03 01:07:13;;;;;;;7.85;1.70;;;19.20;99.10;;;;;;5067489;28;20209;-79
2023/08/03 01:09:39;;;;;;;8.43;1.20;;;19.20;99.10;;;;;;5065724;28;20092;-79
2023/08/03 01:12:05;;;;;;;12.15;2.38;;;19.20;99.10;;;;;;5067758;28;20032;-79
2023/08/03 01:14:31;;;;;;;9.45;1.25;;;19.20;99.00;;;;;;5065974;28;20135;-80
2023/08/03 01:16:57;;;;;;;6.97;1.27;;;19.20;99.00;;;;;;5066471;28;20069;-79
2023/08/03 01:19:23;;;;;;;6.53;1.90;;;19.20;99.00;;;;;;5062651;28;20461;-80
2023/08/03 01:21:50;;;;;;;9.57;1.38;;;19.20;99.00;;;;;;5069307;28;20166;-79
2023/08/03 01:24:16;;;;;;;7.57;1.88;;;19.20;98.90;;;;;;5067946;28;20532;-79
2023/08/03 01:26:42;;;;;;;9.65;1.90;;;19.20;98.90;;;;;;5062917;28;20029;-79
2023/08/03 01:29:11;;;;;;;9.15;1.50;;;19.20;98.90;;;;;;5066447;28;20370;-80
2023/08/03 01:31:37;;;;;;;5.57;1.80;;;19.20;98.90;;;;;;5066578;28;20013;-79
2023/08/03 01:34:03;;;;;;;4.43;1.45;;;19.20;98.80;;;;;;5063770;28;20036;-79
2023/08/03 01:36:29;;;;;;;4.10;1.35;;;19.20;98.80;;;;;;5067315;28;20100;-79
2023/08/03 01:39:04;;;;;;;9.07;1.63;;;19.20;98.80;;;;;;5066969;28;20021;-80
2023/08/03 01:41:30;;;;;;;5.65;1.30;;;19.20;98.80;;;;;;5063988;28;20092;-79
2023/08/03 01:44:18;;;;;;;6.38;1.65;;;19.20;98.80;;;;;;5062398;28;20155;-79
2023/08/03 01:46:44;;;;;;;10.27;1.95;;;19.20;98.80;;;;;;5068050;28;20449;-79
2023/08/03 01:49:09;;;;;;;14.52;2.28;;;19.20;98.80;;;;;;5065971;28;20012;-79
2023/08/03 01:51:36;;;;;;;4.28;1.40;;;19.20;98.80;;;;;;5064058;28;20025;-79
2023/08/03 01:54:01;;;;;;;7.25;1.50;;;19.20;98.80;;;;;;5069639;28;20028;-80
2023/08/03 01:56:27;;;;;;;9.23;2.40;;;19.10;98.70;;;;;;5063064;28;20017;-80
2023/08/03 01:58:53;;;;;;;9.65;1.63;;;19.20;98.70;;;;;;5060571;28;20028;-79
2023/08/03 02:01:18;;;;;;;11.27;1.58;;;19.10;98.70;;;;;;5063904;28;20081;-79
2023/08/03 02:03:44;;;;;;;4.47;1.52;;;19.10;98.60;;;;;;5067874;28;20032;-80
2023/08/03 02:06:09;;;;;;;6.30;1.67;;;19.20;98.60;;;;;;5073261;28;20472;-80
2023/08/03 02:08:35;;;;;;;7.25;1.52;;;19.20;98.60;;;;;;5063987;28;20019;-80
2023/08/03 02:11:00;;;;;;;6.18;1.88;;;19.10;98.50;;;;;;5065775;28;20024;-79
2023/08/03 02:13:26;;;;;;;13.80;1.73;;;19.20;98.50;;;;;;5060242;28;20039;-80
2023/08/03 02:15:51;;;;;;;5.07;1.00;;;19.10;98.40;;;;;;5061868;28;20083;-80
2023/08/03 02:18:17;;;;;;;5.70;1.30;;;19.10;98.40;;;;;;5071264;28;20093;-80
2023/08/03 02:20:42;;;;;;;9.77;1.33;;;19.10;98.40;;;;;;5072690;28;20033;-80
2023/08/03 02:23:08;;;;;;;2.70;1.00;;;19.10;98.30;;;;;;5070980;28;20058;-79
2023/08/03 02:25:34;;;;;;;12.30;1.30;;;19.10;98.30;;;;;;5063285;28;20021;-79
2023/08/03 02:27:59;;;;;;;4.78;1.10;;;19.10;98.30;;;;;;5065216;28;20385;-80
2023/08/03 02:30:25;;;;;;;3.38;1.27;;;19.10;98.20;;;;;;5059610;28;20013;-80
2023/08/03 02:32:50;;;;;;;4.30;0.93;;;19.10;98.20;;;;;;5062558;28;20081;-81
2023/08/03 02:35:16;;;;;;;5.38;1.10;;;19.10;98.10;;;;;;5074025;28;20500;-80
2023/08/03 02:37:41;;;;;;;10.77;1.35;;;19.10;98.10;;;;;;5066776;28;20085;-80
2023/08/03 02:40:08;;;;;;;5.55;1.00;;;19.10;98.00;;;;;;5069674;28;20028;-79
2023/08/03 02:42:35;;;;;;;4.40;1.15;;;19.10;98.00;;;;;;5061894;28;20477;-79
2023/08/03 02:45:01;;;;;;;7.65;1.10;;;19.10;97.90;;;;;;5062893;28;20094;-79
2023/08/03 02:47:27;;;;;;;5.03;1.20;;;19.10;97.90;;;;;;5058705;28;20063;-79
2023/08/03 02:49:53;;;;;;;2.40;1.02;;;19.10;97.90;;;;;;5071993;28;20029;-79
2023/08/03 02:52:18;;;;;;;2.85;1.23;;;19.10;97.90;;;;;;5070579;28;20388;-80
2023/08/03 02:54:44;;;;;;;3.20;0.90;;;19.10;97.80;;;;;;5065534;28;20151;-79
2023/08/03 02:57:10;;;;;;;2.65;0.80;;;19.10;97.80;;;;;;5067136;28;20055;-79
2023/08/03 02:59:35;;;;;;;13.27;1.20;;;19.10;97.80;;;;;;5058950;28;20043;-79
2023/08/03 03:02:01;;;;;;;1.50;0.70;;;19.10;97.70;;;;;;5057840;28;20448;-79
2023/08/03 03:04:26;;;;;;;5.22;1.20;;;19.10;97.60;;;;;;5062175;28;20017;-79
2023/08/03 03:06:52;;;;;;;1.75;0.73;;;19.10;97.60;;;;;;5072481;28;20027;-79
2023/08/03 03:09:17;;;;;;;10.30;1.17;;;19.10;97.50;;;;;;5069854;28;20050;-79
2023/08/03 03:11:43;;;;;;;4.05;1.20;;;19.10;97.50;;;;;;5067478;28;20064;-79
2023/08/03 03:14:09;;;;;;;8.60;1.70;;;19.10;97.50;;;;;;5065659;28;20028;-79
2023/08/03 03:16:34;;;;;;;5.03;1.13;;;19.10;97.50;;;;;;5059282;28;20611;-79
2023/08/03 03:19:00;;;;;;;2.75;1.05;;;19.10;97.40;;;;;;5064926;28;20024;-79
2023/08/03 03:21:25;;;;;;;6.47;1.27;;;19.10;97.40;;;;;;5072840;28;20081;-79
2023/08/03 03:23:51;;;;;;;1.60;0.82;;;19.10;97.30;;;;;;5073714;28;20428;-79
2023/08/03 03:26:17;;;;;;;5.18;1.02;;;19.10;97.30;;;;;;5068832;28;20048;-79
2023/08/03 03:28:42;;;;;;;6.70;1.50;;;19.10;97.30;;;;;;5064084;28;20064;-79
2023/08/03 03:31:08;;;;;;;2.42;1.10;;;19.10;97.30;;;;;;5064418;28;20438;-79
2023/08/03 03:33:34;;;;;;;5.85;1.25;;;19.10;97.30;;;;;;5066884;28;20040;-80
2023/08/03 03:35:59;;;;;;;5.40;1.67;;;19.10;97.20;;;;;;5069371;28;20107;-79
2023/08/03 03:38:25;;;;;;;5.82;1.38;;;19.10;97.10;;;;;;5071699;28;20028;-79
2023/08/03 03:40:50;;;;;;;1.77;1.10;;;19.10;97.20;;;;;;5067577;28;20025;-79
2023/08/03 03:43:16;;;;;;;2.03;1.02;;;19.10;97.10;;;;;;5069293;28;20285;-79
2023/08/03 03:45:41;;;;;;;8.10;1.35;;;19.10;97.10;;;;;;5063043;28;20442;-79
2023/08/03 03:48:07;;;;;;;6.10;1.17;;;19.10;97.10;;;;;;5064713;28;20020;-79
2023/08/03 03:50:33;;;;;;;4.15;1.23;;;19.00;97.10;;;;;;5069340;28;20073;-78
2023/08/03 03:52:58;;;;;;;10.15;1.40;;;19.00;97.10;;;;;;5068506;28;20032;-79
2023/08/03 03:55:24;;;;;;;1.58;0.80;;;19.00;97.10;;;;;;5072039;28;20035;-79
2023/08/03 03:57:49;;;;;;;2.78;1.33;;;19.00;97.10;;;;;;5066584;28;20029;-79
2023/08/03 04:00:15;;;;;;;10.55;1.75;;;19.10;97.10;;;;;;5067570;28;20039;-79
2023/08/03 04:02:41;;;;;;;5.70;0.98;;;19.00;97.00;;;;;;5069820;28;20120;-79
2023/08/03 04:05:06;;;;;;;4.57;1.38;;;19.10;97.00;;;;;;5070286;28;20040;-78
2023/08/03 04:07:32;;;;;;;3.90;1.10;;;19.10;97.00;;;;;;5066561;28;20035;-78
2023/08/03 04:09:57;;;;;;;5.47;1.17;;;19.10;96.90;;;;;;5068256;28;20017;-79
2023/08/03 04:12:23;;;;;;;5.78;1.30;;;19.10;97.00;;;;;;5071364;28;20520;-79
2023/08/03 04:14:48;;;;;;;6.78;1.45;;;19.10;97.00;;;;;;5065613;28;20585;-79
2023/08/03 04:17:14;;;;;;;4.35;1.30;;;19.10;97.00;;;;;;5067123;28;20027;-79
2023/08/03 04:19:39;;;;;;;1.75;1.10;;;19.00;96.90;;;;;;5068116;28;20531;-78
2023/08/03 04:22:05;;;;;;;4.43;1.10;;;19.00;96.90;;;;;;5071468;28;20071;-78
2023/08/03 04:24:31;;;;;;;2.83;1.40;;;19.00;96.90;;;;;;5064543;28;20393;-79
2023/08/03 04:26:57;;;;;;;5.45;1.27;;;19.00;96.90;;;;;;5069819;28;20033;-79
2023/08/03 04:29:22;;;;;;;3.95;1.20;;;19.00;96.80;;;;;;5069156;28;20516;-79
2023/08/03 04:31:48;;;;;;;5.95;1.35;;;19.10;96.80;;;;;;5063242;28;20025;-79
2023/08/03 04:34:13;;;;;;;3.85;1.10;;;19.00;96.80;;;;;;5071083;28;20044;-79
2023/08/03 04:36:39;;;;;;;6.05;1.40;;;19.00;96.80;;;;;;5065846;28;20021;-79
2023/08/03 04:39:05;;;;;;;11.20;1.73;;;19.00;96.80;;;;;;5066734;28;20078;-78
2023/08/03 04:41:31;;;;;;;5.40;1.08;;;19.00;96.70;;;;;;5065726;28;20524;-79
2023/08/03 04:43:57;;;;;;;2.15;0.88;;;19.00;96.60;;;;;;5069492;28;20124;-78
2023/08/03 04:46:22;;;;;;;2.88;1.00;;;19.00;96.70;;;;;;5067802;28;20055;-78
2023/08/03 04:48:48;;;;;;;4.63;0.98;;;19.00;96.60;;;;;;5070154;28;20028;-79
2023/08/03 04:51:13;;;;;;;6.90;1.30;;;19.00;96.60;;;;;;5066510;28;20044;-78
2023/08/03 04:53:39;;;;;;;5.68;1.20;;;19.00;96.70;;;;;;5064503;28;20467;-79
2023/08/03 04:56:05;;;;;;;7.90;1.20;;;19.00;96.60;;;;;;5064559;28;20085;-79
2023/08/03 04:58:31;;;;;;;3.88;1.00;;;19.00;96.60;;;;;;5066679;28;20115;-79
2023/08/03 05:00:57;;;;;;;7.75;1.33;;;19.00;96.50;;;;;;5066447;28;20111;-79
2023/08/03 05:03:22;;;;;;;10.48;1.35;;;19.00;96.50;;;;;;5071236;28;20033;-78
2023/08/03 05:05:58;;;;;;;8.27;1.15;;;19.00;96.50;;;;;;5066836;28;20465;-79
2023/08/03 05:08:31;;;;;;;6.03;1.40;;;19.10;96.60;;;;;;5072566;28;20381;-78
2023/08/03 05:10:57;;;;;;;2.45;0.90;;;19.00;96.50;;;;;;5062329;28;20025;-79
2023/08/03 05:13:22;;;;;;;6.53;1.50;;;19.00;96.50;;;;;;5061739;28;20124;-78
2023/08/03 05:15:48;;;;;;;4.57;1.15;;;19.10;96.50;;;;;;5063668;28;20149;-79
2023/08/03 05:18:13;;;;;;;1.65;0.73;;;19.10;96.50;;;;;;5070448;28;20029;-79
2023/08/03 05:20:39;;;;;;;1.65;0.63;;;19.10;96.50;;;;;;5069031;28;20110;-79
2023/08/03 05:23:07;;;;;;;5.47;0.95;;;19.10;96.50;;;;;;5064164;28;20029;-79
2023/08/03 05:25:33;;;;;;;3.38;0.93;;;19.10;96.50;;;;;;5064070;28;20103;-78
2023/08/03 05:28:00;;;;;;;2.40;0.77;;;19.10;96.50;;;;;;5059963;28;20560;-78
2023/08/03 05:30:26;;;;;;;2.33;1.08;;;19.10;96.50;;;;;;5058006;28;20070;-78
2023/08/03 05:32:53;;;;;;;3.10;0.90;;;19.10;96.50;;;;;;5060250;28;20032;-79
2023/08/03 05:35:18;;;;;;;6.10;1.23;;;19.10;96.50;;;;;;5063572;28;20047;-79
2023/08/03 05:37:44;;;;;;;6.10;1.08;;;19.10;96.50;;;;;;5067097;28;20582;-79
2023/08/03 05:40:10;;;;;;;1.77;0.80;;;19.10;96.50;;;;;;5073151;28;20033;-79
2023/08/03 05:42:38;;;;;;;7.68;1.20;;;19.10;96.50;;;;;;5070452;28;20025;-79
2023/08/03 05:45:48;;;;;;;8.23;1.45;;;19.10;96.50;;;;;;5057790;28;20428;-79
2023/08/03 05:48:16;;;;;;;3.72;0.77;;;19.10;96.50;;;;;;5069903;28;20392;-78
2023/08/03 05:50:45;;;;;;;1.77;0.70;;;19.10;96.50;;;;;;5076853;28;20408;-75
2023/08/03 05:53:12;;;;;;;4.00;1.10;;;19.20;96.40;;;;;;5064256;28;20065;-78
2023/08/03 05:55:38;;;;;;;1.95;0.55;;;19.00;93.50;;;;;;5064706;28;20416;-75
2023/08/03 05:58:05;;;;;;;4.70;0.60;;;18.80;92.70;;;;;;5067470;28;20021;-75
2023/08/03 06:00:31;;;;;;;3.08;0.70;;;18.70;91.90;;;;;;5062715;28;20025;-75
2023/08/03 06:02:57;;;;;;;3.63;1.17;;;18.60;91.50;;;;;;5068834;28;20027;-74
2023/08/03 06:05:38;;;;;;;3.90;1.10;;;18.60;91.10;;;;;;5072622;28;20021;-75
2023/08/03 06:08:21;;;;;;;7.22;0.70;;;18.60;91.10;;;;;;5068013;28;20523;-75
2023/08/03 06:10:54;;;;;;;3.47;0.90;;;18.60;90.40;;;;;;5063239;28;20032;-75
2023/08/03 06:13:31;;;;;;;1.58;0.75;;;18.70;90.50;;;;;;5068241;28;20101;-75
2023/08/03 06:15:57;;;;;;;5.60;0.95;;;18.60;90.40;;;;;;5062993;28;20033;-75
2023/08/03 06:18:23;;;;;;;2.05;0.75;;;18.70;90.40;;;;;;5072938;28;20534;-76
2023/08/03 06:20:52;;;;;;;1.13;0.60;;;18.70;90.30;;;;;;5074880;28;20020;-75
2023/08/03 06:23:19;;;;;;;3.08;1.08;;;18.60;90.10;;;;;;5067928;28;20158;-75
2023/08/03 06:25:50;;;;;;;1.10;0.70;;;18.60;89.20;;;;;;5070505;28;20032;-75
2023/08/03 06:28:16;;;;;;;;;;;18.70;89.80;;;;;;5073000;28;20028;-76
2023/08/03 06:30:42;;;;;;;1.30;0.80;;;18.60;89.40;;;;;;5065313;28;20300;-75
2023/08/03 06:33:11;;;;;;;1.13;0.60;;;18.60;89.40;;;;;;5065714;28;20147;-75
2023/08/03 06:35:41;;;;;;;3.25;0.70;;;18.60;88.90;;;;;;5069211;28;20032;-76
2023/08/03 06:38:12;;;;;;;;;;;18.70;89.70;;;;;;5069838;28;20158;-76
2023/08/03 06:40:40;;;;;;;3.00;0.85;;;18.80;89.80;;;;;;5067095;28;19908;-75
2023/08/03 06:43:06;;;;;;;1.20;0.60;;;18.70;89.10;;;;;;5067297;28;20396;-78
2023/08/03 06:45:33;;;;;;;2.15;0.60;;;18.70;88.20;;;;;;5069378;28;20021;-77
2023/08/03 06:47:59;;;;;;;4.97;0.88;;;18.70;87.50;;;;;;5071910;28;20060;-78
2023/08/03 06:50:30;;;;;;;0.50;0.50;;;18.70;88.50;;;;;;5068214;28;20491;-78
2023/08/03 06:52:56;;;;;;;4.00;0.70;;;18.80;88.10;;;;;;5068063;28;20135;-78
2023/08/03 06:55:22;;;;;;;3.28;0.80;;;18.80;87.70;;;;;;5068561;28;20382;-79
2023/08/03 06:57:48;;;;;;;2.17;0.82;;;18.80;88.50;;;;;;5070212;28;20039;-77
2023/08/03 07:00:14;;;;;;;1.58;0.80;;;18.80;89.10;;;;;;5066092;28;20024;-79
2023/08/03 07:02:47;;;;;;;1.60;0.68;;;18.90;88.00;;;;;;5070918;28;20024;-78
2023/08/03 07:05:13;;;;;;;0.98;0.55;;;18.90;88.40;;;;;;5069077;28;20088;-79
2023/08/03 07:07:39;;;;;;;6.00;0.60;;;18.90;87.80;;;;;;5070090;28;20077;-79
2023/08/03 07:10:06;;;;;;;2.15;0.60;;;18.90;84.70;;;;;;5066784;28;20028;-79
2023/08/03 07:12:33;;;;;;;3.65;0.57;;;18.80;85.30;;;;;;5068143;28;20044;-79
2023/08/03 07:14:59;;;;;;;1.25;0.60;;;18.90;84.60;;;;;;5064076;28;20063;-80
2023/08/03 07:17:24;;;;;;;1.27;0.68;;;18.80;85.40;;;;;;5068322;28;20049;-79
2023/08/03 07:19:53;;;;;;;2.20;0.75;;;18.90;86.40;;;;;;5069539;28;20081;-78
2023/08/03 07:22:19;;;;;;;1.48;0.68;;;18.90;85.90;;;;;;5069678;28;20044;-78
2023/08/03 07:24:45;;;;;;;1.23;0.70;;;18.90;85.40;;;;;;5070568;28;20025;-79
2023/08/03 07:27:14;;;;;;;1.00;0.52;;;18.90;85.40;;;;;;5069448;28;20024;-78
2023/08/03 07:29:41;;;;;;;3.88;0.73;;;18.90;84.30;;;;;;5069286;28;20040;-77
2023/08/03 07:32:07;;;;;;;1.90;0.70;;;18.90;84.20;;;;;;5071724;28;20028;-78
2023/08/03 07:34:33;;;;;;;2.83;0.73;;;18.90;84.20;;;;;;5061804;28;20032;-79
2023/08/03 07:36:59;;;;;;;0.40;0.40;;;18.80;83.20;;;;;;5069064;28;20024;-78
2023/08/03 07:39:25;;;;;;;2.28;0.70;;;18.80;83.80;;;;;;5066187;28;20034;-78
2023/08/03 07:41:51;;;;;;;1.77;0.57;;;18.80;83.10;;;;;;5067175;28;20066;-78
2023/08/03 07:44:18;;;;;;;1.10;0.65;;;18.90;82.50;;;;;;5066225;28;20413;-80
2023/08/03 07:46:44;;;;;;;0.65;0.52;;;18.90;81.90;;;;;;5075828;28;20021;-79
2023/08/03 07:49:10;;;;;;;0.90;0.57;;;18.90;82.90;;;;;;5076482;28;20096;-79
2023/08/03 07:51:36;;;;;;;3.00;0.55;;;18.90;81.00;;;;;;5072209;28;20540;-79
2023/08/03 07:54:02;;;;;;;3.85;0.82;;;18.90;81.00;;;;;;5064696;28;20040;-78
2023/08/03 07:56:27;;;;;;;2.03;0.60;;;18.90;81.30;;;;;;5067901;28;20119;-78
2023/08/03 07:58:53;;;;;;;6.03;0.60;;;18.90;81.60;;;;;;5069565;28;20017;-77
2023/08/03 08:01:19;;;;;;;0.60;0.60;;;19.00;82.00;;;;;;5066596;28;20174;-77
2023/08/03 08:03:45;;;;;;;2.42;0.70;;;19.00;81.90;;;;;;5068606;28;20025;-77
2023/08/03 08:06:14;;;;;;;1.23;0.65;;;18.90;83.60;;;;;;5063418;28;20037;-78
2023/08/03 08:08:40;;;;;;;0.85;0.50;;;18.90;82.30;;;;;;5065824;28;20055;-78
2023/08/03 08:11:07;;;;;;;1.67;1.00;;;18.90;83.20;;;;;;5060129;28;20036;-79
2023/08/03 08:13:33;;;;;;;1.02;0.57;;;18.90;82.60;;;;;;5066551;28;20033;-78
2023/08/03 08:16:03;;;;;;;0.93;0.80;;;18.90;82.80;;;;;;5067726;28;20075;-78
2023/08/03 08:18:30;;;;;;;2.38;0.75;;;18.90;83.40;;;;;;5068085;28;20108;-77
2023/08/03 08:21:10;;;;;;;0.40;0.40;;;18.90;83.50;;;;;;5065115;28;20031;-78
2023/08/03 08:23:37;;;;;;;1.63;0.82;;;18.90;83.50;;;;;;5064325;28;20056;-77
2023/08/03 08:26:12;;;;;;;0.55;0.55;;;18.90;82.20;;;;;;5063477;28;20043;-76
2023/08/03 08:28:38;;;;;;;8.77;0.85;;;18.90;81.40;;;;;;5069066;28;20068;-78
2023/08/03 08:31:04;;;;;;;2.42;0.50;;;19.00;81.70;;;;;;5072469;28;20093;-77
2023/08/03 08:33:29;;;;;;;1.45;0.55;;;19.00;79.90;;;;;;5064110;28;20123;-78
2023/08/03 08:35:55;;;;;;;1.88;0.52;;;19.00;79.40;;;;;;5068159;28;20099;-78
2023/08/03 08:38:21;;;;;;;1.10;0.73;;;19.10;79.70;;;;;;5070248;28;20111;-77
2023/08/03 08:40:47;;;;;;;0.63;0.50;;;19.10;79.10;;;;;;5063998;28;20017;-77
2023/08/03 08:43:12;;;;;;;0.98;0.60;;;19.10;78.50;;;;;;5058639;28;20119;-77
2023/08/03 08:45:38;;;;;;;1.98;0.68;;;19.10;78.00;;;;;;5067306;28;20557;-78
2023/08/03 08:48:05;;;;;;;8.70;1.02;;;19.20;78.50;;;;;;5074614;28;20027;-79
2023/08/03 08:50:31;;;;;;;5.18;0.80;;;19.20;77.40;;;;;;5069926;28;20394;-77
2023/08/03 08:52:57;;;;;;;3.53;0.63;;;19.20;77.50;;;;;;5069575;28;20116;-78
2023/08/03 08:55:26;;;;;;;1.38;0.52;;;19.20;78.20;;;;;;5065609;28;20073;-78
2023/08/03 08:57:52;;;;;;;2.53;0.60;;;19.20;78.50;;;;;;5061162;28;20023;-78
2023/08/03 09:00:19;;;;;;;1.85;0.60;;;19.10;79.70;;;;;;5099374;28;20416;-79
2023/08/03 09:02:45;;;;;;;4.55;0.50;;;19.20;77.50;;;;;;5071775;28;20067;-77
2023/08/03 09:05:17;;;;;;;1.40;0.70;;;19.20;77.00;;;;;;5069334;28;20021;-78
2023/08/03 09:07:44;;;;;;;2.63;0.52;;;19.20;77.50;;;;;;5072921;28;20469;-80
2023/08/03 09:10:11;;;;;;;1.58;0.70;;;19.30;77.10;;;;;;5063834;28;20393;-79
2023/08/03 09:12:41;;;;;;;1.52;0.57;;;19.40;78.20;;;;;;5063829;28;21624;-79
2023/08/03 09:15:07;;;;;;;;;;;19.40;77.60;;;;;;5093309;28;20033;-78
2023/08/03 09:17:34;;;;;;;1.60;0.60;;;19.40;77.00;;;;;;5065549;28;19999;-76
2023/08/03 09:19:59;;;;;;;0.50;0.50;;;19.40;77.10;;;;;;5071073;28;20039;-79
2023/08/03 09:22:26;;;;;;;0.93;0.52;;;19.30;78.10;;;;;;5070322;28;20017;-76
2023/08/03 09:25:04;;;;;;;0.68;0.40;;;19.30;77.80;;;;;;5072422;28;20457;-78
2023/08/03 09:27:30;;;;;;;0.73;0.63;;;19.30;78.10;;;;;;5069184;28;20111;-78
2023/08/03 09:30:04;;;;;;;0.50;0.50;;;19.30;77.00;;;;;;5070704;28;20115;-78
2023/08/03 09:32:34;;;;;;;5.05;0.63;;;19.40;77.40;;;;;;5070146;28;20120;-78
2023/08/03 09:35:01;;;;;;;2.58;0.52;;;19.40;77.50;;;;;;5075601;28;20032;-78
2023/08/03 09:37:34;;;;;;;1.77;0.63;;;19.30;78.20;;;;;;5069160;28;20016;-78
2023/08/03 09:40:03;;;;;;;1.23;0.40;;;19.30;78.40;;;;;;5068547;28;20035;-79
2023/08/03 09:42:31;;;;;;;0.47;0.47;;;19.30;78.30;;;;;;5068079;28;20032;-77
2023/08/03 09:45:00;;;;;;;0.70;0.57;;;19.30;78.10;;;;;;5070640;28;20059;-76
2023/08/03 09:47:26;;;;;;;9.60;0.50;;;19.30;79.10;;;;;;5069465;28;20024;-76
2023/08/03 09:49:52;;;;;;;1.58;0.60;;;19.30;78.60;;;;;;5069134;28;20021;-76
2023/08/03 09:52:22;;;;;;;0.98;0.60;;;19.40;78.20;;;;;;5073780;28;20047;-76
2023/08/03 09:54:57;;;;;;;3.50;0.75;;;19.40;78.90;;;;;;5064908;28;20107;-77
2023/08/03 09:57:27;;;;;;;5.05;0.40;;;19.40;77.80;;;;;;5070592;28;20481;-76
2023/08/03 10:00:00;;;;;;;2.38;0.65;;;19.40;78.30;;;;;;5075462;28;20051;-77
2023/08/03 10:02:32;;;;;;;2.47;0.60;;;19.40;78.00;;;;;;5064236;28;20041;-75
2023/08/03 10:05:02;;;;;;;0.93;0.60;;;19.50;78.30;;;;;;5071674;28;20468;-77
2023/08/03 10:07:35;;;;;;;1.42;0.70;;;19.50;78.80;;;;;;5071955;28;20123;-80
2023/08/03 10:10:03;;;;;;;4.50;0.70;;;19.50;77.70;;;;;;5070258;28;20416;-78
2023/08/03 10:12:43;;;;;;;0.45;0.45;;;19.50;78.00;;;;;;5066534;28;20037;-76
2023/08/03 10:15:09;;;;;;;5.00;1.13;;;19.60;78.70;;;;;;5071038;28;20435;-77
2023/08/03 10:17:37;;;;;;;3.35;0.47;;;19.60;78.00;;;;;;5068434;28;20033;-76
2023/08/03 10:20:03;;;;;;;2.20;0.40;;;19.60;77.80;;;;;;5064555;28;20032;-76
2023/08/03 10:22:29;;;;;;;1.55;0.40;;;19.60;78.00;;;;;;5065331;28;20028;-76
2023/08/03 10:25:19;;;;;;;0.70;0.57;;;19.60;77.80;;;;;;5067900;28;20025;-76
2023/08/03 10:28:13;;;;;;;1.58;0.60;;;19.60;77.80;;;;;;5066385;28;20060;-77
2023/08/03 10:31:01;;;;;;;1.10;0.57;;;19.60;76.90;;;;;;5072143;28;20091;-75
2023/08/03 10:33:45;;;;;;;1.88;0.63;;;19.60;77.80;;;;;;5069893;28;20073;-76
2023/08/03 10:36:35;;;;;;;0.95;0.50;;;19.70;77.60;;;;;;5062628;28;20542;-76
2023/08/03 10:39:01;;;;;;;0.85;0.50;;;19.70;76.50;;;;;;5072141;28;20033;-75
2023/08/03 10:41:29;;;;;;;0.60;0.60;;;19.70;76.90;;;;;;5072882;28;20027;-77
2023/08/03 10:44:10;;;;;;;2.28;0.52;;;19.70;78.00;;;;;;5070129;28;20028;-77
2023/08/03 10:46:50;;;;;;;5.57;0.55;;;19.80;78.60;;;;;;5067528;28;20024;-76
2023/08/03 10:49:22;;;;;;;0.30;0.30;;;19.80;78.40;;;;;;5071842;28;20029;-76
2023/08/03 10:52:15;;;;;;;3.03;0.70;;;19.80;76.90;;;;;;5065095;28;20040;-76
2023/08/03 10:54:40;;;;;;;1.08;0.50;;;19.80;77.10;;;;;;5065233;28;20041;-75
2023/08/03 10:57:15;;;;;;;1.08;0.85;;;19.70;77.30;;;;;;5068799;28;20029;-77
2023/08/03 10:59:41;;;;;;;3.25;0.77;;;19.70;77.50;;;;;;5070383;28;20566;-76
2023/08/03 11:02:12;;;;;;;1.85;0.50;;;19.70;77.90;;;;;;5071317;28;20025;-77
2023/08/03 11:04:39;;;;;;;0.55;0.40;;;19.70;78.20;;;;;;5068271;28;20033;-77
2023/08/03 11:07:07;;;;;;;1.88;0.68;;;19.70;77.90;;;;;;5063654;28;20120;-76
2023/08/03 11:09:33;;;;;;;15.02;1.33;;;19.70;77.30;;;;;;5059763;28;20075;-77
2023/08/03 11:11:59;;;;;;;0.88;0.77;;;19.70;77.40;;;;;;5066337;28;20107;-76
2023/08/03 11:14:28;;;;;;;1.33;0.65;;;19.70;76.70;;;;;;5079328;28;20106;-76
2023/08/03 11:16:53;;;;;;;0.75;0.45;;;19.70;77.10;;;;;;5073728;28;20380;-76
2023/08/03 11:19:21;;;;;;;0.40;0.40;;;19.70;77.70;;;;;;5071626;28;20028;-76
2023/08/03 11:21:46;;;;;;;0.47;0.40;;;19.70;77.80;;;;;;5059942;28;20032;-76
2023/08/03 11:24:12;;;;;;;1.98;0.40;;;19.70;75.70;;;;;;5059054;28;20389;-76
2023/08/03 11:26:38;;;;;;;0.50;0.50;;;19.60;75.70;;;;;;5053975;28;20094;-75
2023/08/03 11:29:06;;;;;;;0.52;0.52;;;19.60;75.70;;;;;;5068572;28;20032;-75
2023/08/03 11:31:32;;;;;;;1.17;0.40;;;19.60;76.70;;;;;;5072800;28;20111;-75
2023/08/03 11:33:58;;;;;;;1.38;0.47;;;19.70;77.30;;;;;;5068226;28;20072;-75
2023/08/03 11:36:24;;;;;;;3.17;0.55;;;19.80;75.70;;;;;;5060318;28;20060;-74
2023/08/03 11:38:51;;;;;;;2.03;0.40;;;19.90;76.00;;;;;;5059501;28;20086;-76
2023/08/03 11:41:23;;;;;;;0.30;0.30;;;19.80;76.50;;;;;;5054899;28;20017;-76
2023/08/03 11:43:49;;;;;;;1.10;0.65;;;19.80;77.40;;;;;;5071172;28;20027;-77
2023/08/03 11:46:15;;;;;;;2.28;0.50;;;19.80;76.00;;;;;;5075415;28;20102;-78
2023/08/03 11:48:45;;;;;;;1.52;0.57;;;19.80;76.20;;;;;;5069765;28;20028;-76
2023/08/03 11:51:11;;;;;;;0.88;0.65;;;19.80;75.20;;;;;;5062065;28;20632;-76
2023/08/03 11:53:38;;;;;;;0.65;0.65;;;19.70;74.70;;;;;;5063486;28;20115;-75
2023/08/03 11:56:04;;;;;;;1.15;0.75;;;19.70;74.60;;;;;;5056418;28;20048;-79
2023/08/03 11:58:30;;;;;;;0.80;0.60;;;19.70;75.10;;;;;;5066961;28;20035;-77
2023/08/03 12:01:00;;;;;;;1.65;0.50;;;19.70;76.00;;;;;;5074167;28;20020;-77
2023/08/03 12:03:32;;;;;;;2.17;0.43;;;19.70;74.90;;;;;;5073881;28;20021;-84
2023/08/03 12:06:05;;;;;;;2.60;0.73;;;19.70;74.40;;;;;;5066625;28;20028;-74
2023/08/03 12:08:40;;;;;;;1.23;0.60;;;19.70;74.40;;;;;;5061411;28;20112;-77
2023/08/03 12:11:06;;;;;;;2.30;0.70;;;19.70;75.30;;;;;;5060440;28;20040;-77
2023/08/03 12:13:31;;;;;;;0.55;0.55;;;19.70;75.80;;;;;;5069652;28;20040;-77
2023/08/03 12:15:57;;;;;;;1.55;0.43;;;19.70;74.40;;;;;;5070843;28;20032;-76
2023/08/03 12:18:24;;;;;;;0.50;0.50;;;19.70;74.70;;;;;;5071264;28;20033;-75
2023/08/03 12:20:50;;;;;;;1.85;0.60;;;19.70;75.40;;;;;;5066884;28;20028;-77
2023/08/03 12:23:16;;;;;;;1.90;0.70;;;19.80;75.90;;;;;;5062639;28;20025;-77
2023/08/03 12:25:42;;;;;;;2.53;0.60;;;19.90;75.50;;;;;;5061293;28;20044;-75
2023/08/03 12:28:08;;;;;;;0.77;0.60;;;19.90;75.80;;;;;;5063762;28;20025;-76
2023/08/03 12:30:33;;;;;;;0.65;0.63;;;19.90;75.50;;;;;;5070215;28;20097;-76
2023/08/03 12:32:59;;;;;;;1.67;0.73;;;19.90;75.70;;;;;;5069821;28;20496;-78
2023/08/03 12:35:27;;;;;;;2.97;0.80;;;19.90;75.60;;;;;;5072398;28;20064;-76
2023/08/03 12:37:52;;;;;;;3.08;0.88;;;19.90;75.50;;;;;;5070265;28;20036;-78
2023/08/03 12:40:18;;;;;;;2.15;0.70;;;20.00;75.30;;;;;;5064816;28;20029;-77
2023/08/03 12:42:43;;;;;;;0.50;0.50;;;20.10;75.30;;;;;;5067763;28;20020;-76
2023/08/03 12:45:10;;;;;;;3.85;0.90;;;20.20;75.80;;;;;;5068421;28;20111;-76
2023/08/03 12:47:37;;;;;;;4.47;0.63;;;20.20;76.30;;;;;;5068652;28;20024;-77
2023/08/03 12:50:06;;;;;;;1.05;0.60;;;20.30;76.90;;;;;;5068726;28;20024;-78